• Join FlightAware (Why Join?)
  • Login
  • US Flag 
04:06PM EDT


 

Airport Tracker/Info


-or-


 

Live Flight TrackerFlight Track Log ✈ ASQ5481 ✈ 23-Jun-2013 ✈ CYYZ - KATL

Flight Track Log - Related Links

Times and Time Zones

All times are in EDT time to prevent confusion due to time zone crossing. See the ASQ5481 flight status page for this flight to view local times or setup timezone preferences in your user account.

Time Position Orientation Groundspeed Altitude Reporting Facility
EDT Latitude Longitude Course Direction KTS MPH feet Rate Location/Type
06:32AM 43.6500 -79.6833 189° South 170 196 2,200  Level Toronto Center
06:33AM 43.6167 -79.7333 227° Southwest 240 276 4,300 2,640 Climbing Toronto Center
06:34AM 43.5333 -79.7667 196° South 270 311 7,500 3,000 Climbing Toronto Center
06:35AM 43.4667 -79.8000 200° South 280 322 10,300 2,280 Climbing Toronto Center
06:36AM 43.3667 -79.7667 166° South 350 403 12,100 1,920 Climbing Toronto Center
06:37AM 43.2667 -79.8000 194° South 350 403 14,200 2,160 Climbing Toronto Center
06:38AM 42.9599 -79.7552 189° South  Level FlightAware Approximate
06:38AM 43.1667 -79.8000 180° South 360 414 16,500  Level Toronto Center
06:39AM 43.0667 -79.8167 187° South 370 426 18,400 1,680 Climbing Toronto Center
06:40AM 42.9667 -79.8333 187° South 380 437 19,900 1,560 Climbing Toronto Center
06:41AM 42.8500 -79.8833 197° South 400 460 21,600 1,620 Climbing Toronto Center
06:42AM 42.8064 -79.9381 223° Southwest 399 459 22,500 1,320 Climbing Cleveland Center
06:43AM 42.7044 -79.9814 197° South 413 475 23,800 1,200 Climbing Cleveland Center
06:44AM 42.5944 -80.0306 198° South 423 487 25,000 960 Climbing Cleveland Center
06:45AM 42.4778 -80.0822 198° South 436 502 25,800 900 Climbing Cleveland Center
06:46AM 42.3572 -80.1336 197° South 450 518 26,900 1,080 Climbing Cleveland Center
06:47AM 42.2406 -80.1850 198° South 450 518 28,000 540 Climbing Cleveland Center
06:48AM 42.1075 -80.2417 198° South 458 527 28,000  Level Cleveland Center
06:49AM 41.9825 -80.2956 198° South 466 536 28,000  Level Cleveland Center
06:50AM 41.8617 -80.3489 198° South 460 529 28,000  Level Cleveland Center
06:51AM 41.7431 -80.3967 197° South 455 524 28,000  Level Cleveland Center
06:52AM 41.6283 -80.4469 198° South 449 517 28,000  Level Cleveland Center
06:53AM 41.5097 -80.4944 197° South 442 509 28,000  Level Cleveland Center
06:54AM 41.3950 -80.5444 198° South 442 509 28,000  Level Cleveland Center
06:55AM 41.2783 -80.5942 198° South 442 509 28,000  Level Cleveland Center
06:56AM 41.1742 -80.6356 197° South 442 509 28,000  Level Cleveland Center
06:57AM 41.0469 -80.6906 198° South 442 509 28,000  Level Cleveland Center
06:58AM 40.9300 -80.7397 198° South 442 509 28,000  Level Cleveland Center
06:59AM 40.8111 -80.7917 198° South 442 509 28,000  Level Cleveland Center
07:00AM 40.6944 -80.8378 197° South 442 509 28,000  Level Cleveland Center
07:01AM 40.5733 -80.8864 197° South 442 509 28,000  Level Cleveland Center
07:02AM 40.4564 -80.9350 198° South 447 514 28,000  Level Cleveland Center
07:03AM 40.3375 -80.9836 197° South 447 514 28,000  Level Cleveland Center
07:04AM 40.2164 -81.0317 197° South 447 514 28,000  Level Cleveland Center
07:05AM 40.0575 -81.0953 197° South 446 513 28,000  Level Indianapolis Center
07:06AM 39.9428 -81.1439 198° South 445 512 28,000  Level Indianapolis Center
07:07AM 39.8244 -81.1897 197° South 442 509 28,000  Level Indianapolis Center
07:08AM 39.7064 -81.2381 197° South 443 510 28,000  Level Indianapolis Center
07:09AM 39.5886 -81.2842 197° South 441 507 28,000  Level Indianapolis Center
07:10AM 39.4714 -81.3308 197° South 440 506 28,000  Level Indianapolis Center
07:11AM 39.3544 -81.3761 197° South 439 505 28,000  Level Indianapolis Center
07:12AM 39.2150 -81.4328 197° South 436 502 28,000  Level Indianapolis Center
07:13AM 39.1000 -81.4781 197° South 432 497 28,000  Level Indianapolis Center
07:14AM 38.9842 -81.5242 197° South 435 501 28,000  Level Indianapolis Center
07:15AM 38.8683 -81.5703 197° South 438 504 28,000  Level Indianapolis Center
07:16AM 38.7419 -81.6172 196° South 442 509 28,000  Level Indianapolis Center
07:17AM 38.6408 -81.6578 197° South 438 504 28,000  Level Indianapolis Center
07:18AM 38.5233 -81.7050 197° South 447 514 28,000  Level Indianapolis Center
07:20AM 38.4092 -81.7472 196° South 433 498 28,000  Level Indianapolis Center
07:21AM 38.2703 -81.8056 198° South 434 499 28,000  Level Indianapolis Center
07:22AM 38.1525 -81.8592 200° South 441 507 28,000  Level Indianapolis Center
07:23AM 38.0381 -81.9072 198° South 439 505 28,000  Level Indianapolis Center
07:24AM 37.9222 -81.9586 199° South 442 509 28,000  Level Indianapolis Center
07:25AM 37.8156 -82.0058 199° South 429 494 28,000  Level Indianapolis Center
07:26AM 37.6986 -82.0550 198° South 434 499 28,000  Level Indianapolis Center
07:27AM 37.5831 -82.1056 199° South 433 498 28,000  Level Indianapolis Center
07:28AM 37.4656 -82.1542 198° South 437 503 28,000  Level Indianapolis Center
07:29AM 37.3503 -82.2033 199° South 433 498 28,000  Level Indianapolis Center
07:30AM 37.2119 -82.2614 198° South 443 510 28,000  Level Indianapolis Center
07:31AM 37.0947 -82.3114 199° South 439 505 28,000  Level Indianapolis Center
07:32AM 36.9769 -82.3617 199° South 440 506 28,000  Level Indianapolis Center
07:33AM 36.8600 -82.4108 199° South 439 505 28,000  Level Indianapolis Center
07:34AM 36.7422 -82.4600 198° South 439 505 28,000  Level Indianapolis Center
07:35AM 36.6247 -82.5081 198° South 439 505 28,000  Level Indianapolis Center
07:35AM 36.5456 -82.5400 198° South 444 511 28,000  Level Atlanta Center
07:36AM 36.4292 -82.5886 199° South 444 511 28,000  Level Atlanta Center
07:37AM 36.3131 -82.6369 199° South 444 511 28,000  Level Atlanta Center
07:38AM 36.2114 -82.6825 200° South 439 505 28,000  Level Atlanta Center
07:39AM 36.0950 -82.7308 199° South 439 505 28,000  Level Atlanta Center
07:40AM 35.9767 -82.7789 198° South 447 514 28,000  Level Atlanta Center
07:41AM 35.8583 -82.8269 198° South 447 514 28,000  Level Atlanta Center
07:42AM 35.7461 -82.8744 199° South 442 509 28,000  Level Atlanta Center
07:43AM 35.6297 -82.9247 199° South 442 509 28,000  Level Atlanta Center
07:44AM 35.5178 -82.9928 206° Southwest 442 509 28,000  Level Atlanta Center
07:45AM 35.4056 -83.0603 206° Southwest 447 514 28,000  Level Atlanta Center
07:46AM 35.2997 -83.1253 207° Southwest 441 507 28,000  Level Atlanta Center
07:47AM 35.1917 -83.1925 207° Southwest 441 507 28,000  Level Atlanta Center
07:48AM 35.0836 -83.2569 206° Southwest 436 502 28,000  Level Atlanta Center
07:49AM 34.9775 -83.3189 206° Southwest 436 502 28,000  Level Atlanta Center
07:50AM 34.8672 -83.3856 206° Southwest 428 493 28,000  Level Atlanta Center
07:51AM 34.7633 -83.4497 207° Southwest 428 493 28,000 -1,020 Level Atlanta Center
07:52AM 34.6550 -83.5111 205° Southwest 428 493 26,000 -2,040 Descending Atlanta Center
07:53AM 34.5572 -83.5672 205° Southwest 406 467 24,000 -2,040 Descending Atlanta Center
07:54AM 34.4739 -83.6381 215° Southwest 379 436 22,000 -1,980 Descending Atlanta Center
07:55AM 34.4306 -83.7517 245° Southwest 349 402 20,100 -1,860 Descending Atlanta Center
07:56AM 34.3283 -83.7947 199° South 351 404 18,300 -1,740 Descending Atlanta Center
07:57AM 34.2197 -83.8178 190° South 366 421 16,700 -1,800 Descending Atlanta Center
07:58AM 34.1217 -83.8381 190° South 373 429 14,800 -1,380 Descending Atlanta Center
07:59AM 34.0406 -83.8933 209° Southwest 355 409 14,000 -420 Descending Atlanta Center
08:00AM 33.9667 -83.9667 219° Southwest 333 383 14,000 -60 Level Atlanta TRACON
08:01AM 33.9000 -84.0500 226° Southwest 307 353 13,900 -780 Descending Atlanta TRACON
08:02AM 33.8500 -84.1000 220° Southwest 287 330 12,600 -1,020 Descending Atlanta TRACON
08:03AM 33.7833 -84.1500 212° Southwest 285 328 12,000 -300 Descending Atlanta TRACON
08:04AM 33.7333 -84.2167 228° Southwest 293 337 12,000  Level Atlanta TRACON
08:05AM 33.7333 -84.3167 270° West 298 343 12,000 -720 Level Atlanta TRACON
08:06AM 33.7333 -84.4167 270° West 301 346 10,700 -1,440 Descending Atlanta TRACON
08:07AM 33.7333 -84.5000 270° West 292 336 9,200 -1,560 Descending Atlanta TRACON
08:08AM 33.7333 -84.6000 270° West 286 329 7,800 -1,260 Descending Atlanta TRACON
08:09AM 33.7333 -84.6833 270° West 260 299 6,900 -1,080 Descending Atlanta TRACON
08:10AM 33.7333 -84.7667 270° West 229 264 5,700 -1,020 Descending Atlanta TRACON
08:11AM 33.7333 -84.8333 270° West 232 267 5,000 -420 Descending Atlanta TRACON
08:12AM 33.7000 -84.8833 231° Southwest 210 242 5,000  Level Atlanta TRACON
08:13AM 33.6500 -84.8667 164° South 183 211 5,000  Level Atlanta TRACON
08:14AM 33.6500 -84.8167 90° East 193 222 5,000  Level Atlanta TRACON
08:15AM 33.6500 -84.7500 90° East 189 217 5,000  Level Atlanta TRACON
08:16AM 33.6500 -84.7000 90° East 184 212 5,000 -480 Level Atlanta TRACON
08:17AM 33.6500 -84.6333 90° East 185 213 4,200 -900 Descending Atlanta TRACON
08:18AM 33.6500 -84.5833 90° East 176 203 3,200 -960 Descending Atlanta TRACON
08:19AM 33.6500 -84.5333 90° East 164 189 2,400 -780 Descending Atlanta TRACON
08:20AM 33.6500 -84.4833 90° East 136 157 1,800 -600 Descending Atlanta TRACON
08:22AM 33.6367 -84.4279 64° Northeast  Level Estimated
08:29AM 33.6367 -84.4279 64° Northeast  Level Estimated
08:30AM 33.6367 -84.4279 64° Northeast  Level Estimated